Ban Sai Po Nuea, Thailand

3:54 PM ICT on December 04, 2016 (GMT +0700)
Ao Nang Weather Station | | Change Station

Elev 177 ft 8.05 °N, 98.84 °E | Updated 57 seconds ago

Mostly Cloudy
Mostly Cloudy
78.4 °F
Feels Like 81 °F
N
6.3
Wind Variable Wind from NNE
Gusts 6.3 mph

Today
High -- | Low -- °F
--% Chance of Precip.
Yesterday
High -- | Low -- °F
Precip. -- in
Pressure 29.74 in
Visibility 5.0 miles
Clouds Few 1800 ft
Mostly Cloudy 10000 ft
Heat Index 81 °F
Dew Point 75 °F
Humidity 88%
Rainfall 0.11 in
Snow Depth Not available.
6:23 AM 6:04 PM
Waxing Crescent, 21% visible
METAR VTSP 040830Z 09012KT 030V120 8000 FEW018 BKN100 28/22 Q1007 NOSIG
Pressure 29.74 in
Visibility 5.0 miles
Clouds Few 1800 ft
Mostly Cloudy 10000 ft
Heat Index 81 °F
Dew Point 75 °F
Humidity 88%
Rainfall 0.11 in
Snow Depth Not available.
6:23 AM 6:04 PM
Waxing Crescent, 21% visible
METAR VTSP 040830Z 09012KT 030V120 8000 FEW018 BKN100 28/22 Q1007 NOSIG

10-Day Weather Forecast

No radar image for this location.
×

Almanac

Astronomy

Dec. 04, 2016 Rise Set
Actual Time
Civil Twilight
Nautical Twilight
Astronomical Twilight
Moon
Length of Visible Light
Length of Day
Tomorrow will be .
, % of the Moon is Illuminated

Today's Extremes

Country Highs Country Lows

Community

WunderPhotos

Upload Photos

1,955,587 photos uploaded!

WunderBlog® & News

Nearby

Air Quality

  Air Quality AQ Index Pollutant
Not available.

Snow Depth

Station Depth Elevation

Earthquake Activity

City Distance Mag. Time & Date
Minimum magnitude displayed is 2.5.

Coastal Water Temperatures

Place Temperature

Stations

Nearby Weather Stations

Station Location Temp. Windchill Dew Point Humidity Wind Precip. Elev Updated Type